Aviation weather information 2020-10-20 03:41 UTC

TAF(FCEO32)
FCEO32 EETN 200300
TAF EEKA 200300Z 2004/2010 34010KT 9999 BKN025 TEMPO 2004/2008
     BKN012 SCT020CB=

TAF(FTEO31)
FTEO31 EETN 192300
TAF EETN 192300Z 2000/2024 33012KT 9999 SCT015 OVC020 TEMPO
     2000/2003 34015G25KT 3000 SHRASN BKN006 BKN015CB BECMG 2010/2012
     27006KT SCT030 BECMG 2020/2022 16010KT 6000 RA SCT015 OVC025=

TAF(FTEO33)
FTEO33 EEEI 192330
TAF EEEI 192330Z 2000/2024 33010KT 9999 BKN020 BKN035 BECMG
     2014/2016 14005KT TEMPO 2021/2024 6000 RA BKN008 BKN015= 

Weather observation (METAR/SPECI)
METAR EETN 200320Z 35007KT 310V030 9999 OVC019 04/M00 Q1014
R08/290195=
METAR EEEI 200250Z 30007KT 270V350 9999 OVC023 03/M00 Q1014
R24/290095=
METAR EETU 200320Z AUTO 29011KT 260V320 9999 OVC006/// 01/00 Q1012=
METAR EEPU 200320Z NIL=
SPECI EEKE 200337Z AUTO 34004KT 280V050 9999NDV RA FEW013 BKN021
OVC028 04/03 Q1016=
METAR EEKA 200320Z 33015KT 9999 OVC023 06/02 Q1015=